sensor_id;sensor_type;location;lat;lon;timestamp;P1;durP1;ratioP1;P2;durP2;ratioP2
10701;SDS011;5402;50.004;8.246;2022-09-09T00:00:19;5.13;;;2.10;;
10701;SDS011;5402;50.004;8.246;2022-09-09T00:02:47;2.80;;;1.80;;
10701;SDS011;5402;50.004;8.246;2022-09-09T00:05:23;4.70;;;1.73;;
10701;SDS011;5402;50.004;8.246;2022-09-09T00:07:58;4.93;;;1.77;;
10701;SDS011;5402;50.004;8.246;2022-09-09T00:10:29;1.93;;;1.50;;
10701;SDS011;5402;50.004;8.246;2022-09-09T00:13:00;2.10;;;1.37;;
10701;SDS011;5402;50.004;8.246;2022-09-09T00:15:37;3.40;;;1.50;;
10701;SDS011;5402;50.004;8.246;2022-09-09T00:18:11;2.40;;;1.47;;
10701;SDS011;5402;50.004;8.246;2022-09-09T00:20:44;4.30;;;1.60;;
10701;SDS011;5402;50.004;8.246;2022-09-09T00:23:19;2.37;;;1.40;;
10701;SDS011;5402;50.004;8.246;2022-09-09T00:25:54;2.03;;;1.50;;
10701;SDS011;5402;50.004;8.246;2022-09-09T00:28:28;3.90;;;1.73;;
10701;SDS011;5402;50.004;8.246;2022-09-09T00:30:59;2.33;;;1.57;;
10701;SDS011;5402;50.004;8.246;2022-09-09T00:33:30;2.90;;;1.40;;
10701;SDS011;5402;50.004;8.246;2022-09-09T00:35:57;3.27;;;1.70;;
10701;SDS011;5402;50.004;8.246;2022-09-09T00:38:27;1.73;;;1.53;;
10701;SDS011;5402;50.004;8.246;2022-09-09T00:41:00;1.67;;;1.50;;
10701;SDS011;5402;50.004;8.246;2022-09-09T00:43:34;1.93;;;1.50;;
10701;SDS011;5402;50.004;8.246;2022-09-09T00:46:16;1.90;;;1.50;;
10701;SDS011;5402;50.004;8.246;2022-09-09T00:49:11;3.33;;;1.40;;
10701;SDS011;5402;50.004;8.246;2022-09-09T00:51:46;2.00;;;1.63;;
10701;SDS011;5402;50.004;8.246;2022-09-09T00:54:26;2.93;;;2.17;;
10701;SDS011;5402;50.004;8.246;2022-09-09T00:57:02;2.03;;;1.60;;
10701;SDS011;5402;50.004;8.246;2022-09-09T00:59:40;2.00;;;1.47;;
10701;SDS011;5402;50.004;8.246;2022-09-09T01:02:18;1.90;;;1.80;;
10701;SDS011;5402;50.004;8.246;2022-09-09T01:04:51;3.23;;;1.77;;
10701;SDS011;5402;50.004;8.246;2022-09-09T01:07:19;1.40;;;1.30;;
10701;SDS011;5402;50.004;8.246;2022-09-09T01:09:54;2.63;;;1.60;;
10701;SDS011;5402;50.004;8.246;2022-09-09T01:12:28;2.43;;;1.63;;
10701;SDS011;5402;50.004;8.246;2022-09-09T01:15:07;2.57;;;1.30;;
10701;SDS011;5402;50.004;8.246;2022-09-09T01:17:41;4.80;;;1.67;;
10701;SDS011;5402;50.004;8.246;2022-09-09T01:20:17;2.33;;;1.43;;
10701;SDS011;5402;50.004;8.246;2022-09-09T01:22:52;3.20;;;2.63;;
10701;SDS011;5402;50.004;8.246;2022-09-09T01:25:56;2.73;;;1.30;;
10701;SDS011;5402;50.004;8.246;2022-09-09T01:28:38;2.30;;;1.37;;
10701;SDS011;5402;50.004;8.246;2022-09-09T01:31:06;3.10;;;1.53;;
10701;SDS011;5402;50.004;8.246;2022-09-09T01:33:37;3.00;;;1.40;;
10701;SDS011;5402;50.004;8.246;2022-09-09T01:36:04;3.00;;;1.60;;
10701;SDS011;5402;50.004;8.246;2022-09-09T01:38:35;2.20;;;1.37;;
10701;SDS011;5402;50.004;8.246;2022-09-09T01:41:06;4.33;;;1.50;;
10701;SDS011;5402;50.004;8.246;2022-09-09T01:43:32;2.90;;;2.07;;
10701;SDS011;5402;50.004;8.246;2022-09-09T01:46:00;2.13;;;1.33;;
10701;SDS011;5402;50.004;8.246;2022-09-09T01:48:27;1.97;;;1.43;;
10701;SDS011;5402;50.004;8.246;2022-09-09T01:50:56;1.23;;;1.13;;
10701;SDS011;5402;50.004;8.246;2022-09-09T01:53:23;3.30;;;1.60;;
10701;SDS011;5402;50.004;8.246;2022-09-09T01:55:52;2.20;;;1.67;;
10701;SDS011;5402;50.004;8.246;2022-09-09T01:58:34;3.70;;;1.80;;
10701;SDS011;5402;50.004;8.246;2022-09-09T02:01:14;2.43;;;1.50;;
10701;SDS011;5402;50.004;8.246;2022-09-09T02:03:49;1.57;;;1.40;;
10701;SDS011;5402;50.004;8.246;2022-09-09T02:06:23;4.57;;;1.87;;
10701;SDS011;5402;50.004;8.246;2022-09-09T02:08:54;3.37;;;1.60;;
10701;SDS011;5402;50.004;8.246;2022-09-09T02:11:24;3.40;;;1.73;;
10701;SDS011;5402;50.004;8.246;2022-09-09T02:13:56;2.20;;;1.40;;
10701;SDS011;5402;50.004;8.246;2022-09-09T02:16:28;2.70;;;1.47;;
10701;SDS011;5402;50.004;8.246;2022-09-09T02:19:01;1.23;;;1.13;;
10701;SDS011;5402;50.004;8.246;2022-09-09T02:21:33;3.13;;;1.47;;
10701;SDS011;5402;50.004;8.246;2022-09-09T02:24:02;4.17;;;1.70;;
10701;SDS011;5402;50.004;8.246;2022-09-09T02:26:33;1.43;;;1.33;;
10701;SDS011;5402;50.004;8.246;2022-09-09T02:29:03;2.63;;;1.60;;
10701;SDS011;5402;50.004;8.246;2022-09-09T02:31:33;2.70;;;1.50;;
10701;SDS011;5402;50.004;8.246;2022-09-09T02:34:03;4.10;;;1.50;;
10701;SDS011;5402;50.004;8.246;2022-09-09T02:36:35;2.07;;;1.50;;
10701;SDS011;5402;50.004;8.246;2022-09-09T02:39:04;3.00;;;1.57;;
10701;SDS011;5402;50.004;8.246;2022-09-09T02:41:33;2.53;;;1.60;;
10701;SDS011;5402;50.004;8.246;2022-09-09T02:44:08;2.17;;;1.70;;
10701;SDS011;5402;50.004;8.246;2022-09-09T02:46:42;1.83;;;1.50;;
10701;SDS011;5402;50.004;8.246;2022-09-09T02:49:20;2.87;;;1.57;;
10701;SDS011;5402;50.004;8.246;2022-09-09T02:51:57;1.87;;;1.40;;
10701;SDS011;5402;50.004;8.246;2022-09-09T02:54:28;2.60;;;1.20;;
10701;SDS011;5402;50.004;8.246;2022-09-09T02:56:58;2.90;;;1.60;;
10701;SDS011;5402;50.004;8.246;2022-09-09T02:59:31;3.13;;;1.67;;
10701;SDS011;5402;50.004;8.246;2022-09-09T03:01:59;1.60;;;1.50;;
10701;SDS011;5402;50.004;8.246;2022-09-09T03:04:26;3.23;;;1.70;;
10701;SDS011;5402;50.004;8.246;2022-09-09T03:06:53;3.50;;;1.60;;
10701;SDS011;5402;50.004;8.246;2022-09-09T03:09:20;2.20;;;2.00;;
10701;SDS011;5402;50.004;8.246;2022-09-09T03:11:47;3.17;;;1.47;;
10701;SDS011;5402;50.004;8.246;2022-09-09T03:14:14;1.50;;;1.40;;
10701;SDS011;5402;50.004;8.246;2022-09-09T03:16:42;5.13;;;1.90;;
10701;SDS011;5402;50.004;8.246;2022-09-09T03:19:09;4.40;;;1.70;;
10701;SDS011;5402;50.004;8.246;2022-09-09T03:21:36;2.33;;;1.80;;
10701;SDS011;5402;50.004;8.246;2022-09-09T03:24:03;2.10;;;1.30;;
10701;SDS011;5402;50.004;8.246;2022-09-09T03:26:31;2.20;;;2.00;;
10701;SDS011;5402;50.004;8.246;2022-09-09T03:28:58;2.93;;;1.83;;
10701;SDS011;5402;50.004;8.246;2022-09-09T03:31:26;1.97;;;1.63;;
10701;SDS011;5402;50.004;8.246;2022-09-09T03:33:56;2.93;;;1.73;;
10701;SDS011;5402;50.004;8.246;2022-09-09T03:36:24;3.40;;;1.60;;
10701;SDS011;5402;50.004;8.246;2022-09-09T03:38:51;4.40;;;1.87;;
10701;SDS011;5402;50.004;8.246;2022-09-09T03:41:19;4.27;;;1.67;;
10701;SDS011;5402;50.004;8.246;2022-09-09T03:43:46;3.77;;;1.47;;
10701;SDS011;5402;50.004;8.246;2022-09-09T03:46:14;2.40;;;1.63;;
10701;SDS011;5402;50.004;8.246;2022-09-09T03:48:42;2.60;;;1.70;;
10701;SDS011;5402;50.004;8.246;2022-09-09T03:51:10;1.47;;;1.37;;
10701;SDS011;5402;50.004;8.246;2022-09-09T03:53:37;1.53;;;1.43;;
10701;SDS011;5402;50.004;8.246;2022-09-09T03:56:05;3.23;;;1.50;;
10701;SDS011;5402;50.004;8.246;2022-09-09T03:58:32;1.63;;;1.53;;
10701;SDS011;5402;50.004;8.246;2022-09-09T04:01:00;1.97;;;1.33;;
10701;SDS011;5402;50.004;8.246;2022-09-09T04:03:31;2.70;;;1.40;;
10701;SDS011;5402;50.004;8.246;2022-09-09T04:06:01;1.60;;;1.50;;
10701;SDS011;5402;50.004;8.246;2022-09-09T04:08:31;2.33;;;1.30;;
10701;SDS011;5402;50.004;8.246;2022-09-09T04:10:58;4.17;;;1.80;;
10701;SDS011;5402;50.004;8.246;2022-09-09T04:13:27;3.43;;;1.70;;
10701;SDS011;5402;50.004;8.246;2022-09-09T04:15:55;2.17;;;1.50;;
10701;SDS011;5402;50.004;8.246;2022-09-09T04:18:23;1.80;;;1.70;;
10701;SDS011;5402;50.004;8.246;2022-09-09T04:20:51;1.90;;;1.50;;
10701;SDS011;5402;50.004;8.246;2022-09-09T04:23:19;3.53;;;1.40;;
10701;SDS011;5402;50.004;8.246;2022-09-09T04:25:48;1.90;;;1.40;;
10701;SDS011;5402;50.004;8.246;2022-09-09T04:28:16;3.50;;;1.73;;
10701;SDS011;5402;50.004;8.246;2022-09-09T04:30:44;3.37;;;2.17;;
10701;SDS011;5402;50.004;8.246;2022-09-09T04:33:12;3.23;;;1.57;;
10701;SDS011;5402;50.004;8.246;2022-09-09T04:35:39;4.40;;;2.13;;
10701;SDS011;5402;50.004;8.246;2022-09-09T04:38:10;1.73;;;1.60;;
10701;SDS011;5402;50.004;8.246;2022-09-09T04:40:37;1.63;;;1.53;;
10701;SDS011;5402;50.004;8.246;2022-09-09T04:43:09;2.90;;;1.50;;
10701;SDS011;5402;50.004;8.246;2022-09-09T04:45:36;1.83;;;1.50;;
10701;SDS011;5402;50.004;8.246;2022-09-09T04:48:05;1.73;;;1.63;;
10701;SDS011;5402;50.004;8.246;2022-09-09T04:50:32;3.47;;;1.70;;
10701;SDS011;5402;50.004;8.246;2022-09-09T04:52:59;2.27;;;1.53;;
10701;SDS011;5402;50.004;8.246;2022-09-09T04:55:26;1.83;;;1.60;;
10701;SDS011;5402;50.004;8.246;2022-09-09T04:57:53;1.80;;;1.60;;
10701;SDS011;5402;50.004;8.246;2022-09-09T05:00:21;2.93;;;1.90;;
10701;SDS011;5402;50.004;8.246;2022-09-09T05:02:48;2.60;;;1.53;;
10701;SDS011;5402;50.004;8.246;2022-09-09T05:05:16;4.13;;;2.27;;
10701;SDS011;5402;50.004;8.246;2022-09-09T05:07:43;2.50;;;1.83;;
10701;SDS011;5402;50.004;8.246;2022-09-09T05:10:10;2.83;;;1.50;;
10701;SDS011;5402;50.004;8.246;2022-09-09T05:12:38;3.07;;;1.70;;
10701;SDS011;5402;50.004;8.246;2022-09-09T05:15:05;3.90;;;1.80;;
10701;SDS011;5402;50.004;8.246;2022-09-09T05:17:34;2.57;;;1.70;;
10701;SDS011;5402;50.004;8.246;2022-09-09T05:20:00;4.17;;;1.70;;
10701;SDS011;5402;50.004;8.246;2022-09-09T05:22:29;2.07;;;1.40;;
10701;SDS011;5402;50.004;8.246;2022-09-09T05:24:55;1.70;;;1.60;;
10701;SDS011;5402;50.004;8.246;2022-09-09T05:27:23;4.73;;;1.80;;
10701;SDS011;5402;50.004;8.246;2022-09-09T05:29:50;2.73;;;1.70;;
10701;SDS011;5402;50.004;8.246;2022-09-09T05:32:17;2.27;;;1.60;;
10701;SDS011;5402;50.004;8.246;2022-09-09T05:34:45;1.57;;;1.27;;
10701;SDS011;5402;50.004;8.246;2022-09-09T05:37:12;2.87;;;1.73;;
10701;SDS011;5402;50.004;8.246;2022-09-09T05:39:39;2.50;;;1.40;;
10701;SDS011;5402;50.004;8.246;2022-09-09T05:42:06;3.00;;;1.37;;
10701;SDS011;5402;50.004;8.246;2022-09-09T05:44:32;1.97;;;1.40;;
10701;SDS011;5402;50.004;8.246;2022-09-09T05:46:59;1.93;;;1.30;;
10701;SDS011;5402;50.004;8.246;2022-09-09T05:49:26;2.43;;;1.70;;
10701;SDS011;5402;50.004;8.246;2022-09-09T05:51:54;2.40;;;1.30;;
10701;SDS011;5402;50.004;8.246;2022-09-09T05:54:21;2.90;;;1.30;;
10701;SDS011;5402;50.004;8.246;2022-09-09T05:56:48;2.50;;;1.60;;
10701;SDS011;5402;50.004;8.246;2022-09-09T05:59:17;1.67;;;1.30;;
10701;SDS011;5402;50.004;8.246;2022-09-09T06:01:44;2.20;;;1.47;;
10701;SDS011;5402;50.004;8.246;2022-09-09T06:04:12;1.20;;;1.10;;
10701;SDS011;5402;50.004;8.246;2022-09-09T06:06:38;2.00;;;1.77;;
10701;SDS011;5402;50.004;8.246;2022-09-09T06:09:08;4.03;;;1.50;;
10701;SDS011;5402;50.004;8.246;2022-09-09T06:11:36;2.80;;;1.60;;
10701;SDS011;5402;50.004;8.246;2022-09-09T06:14:05;3.13;;;1.50;;
10701;SDS011;5402;50.004;8.246;2022-09-09T06:16:32;3.90;;;1.70;;
10701;SDS011;5402;50.004;8.246;2022-09-09T06:18:59;1.50;;;1.17;;
10701;SDS011;5402;50.004;8.246;2022-09-09T06:21:28;2.27;;;1.43;;
10701;SDS011;5402;50.004;8.246;2022-09-09T06:23:56;2.63;;;1.53;;
10701;SDS011;5402;50.004;8.246;2022-09-09T06:26:25;3.97;;;1.50;;
10701;SDS011;5402;50.004;8.246;2022-09-09T06:28:54;6.73;;;1.70;;
10701;SDS011;5402;50.004;8.246;2022-09-09T06:31:22;3.47;;;1.23;;
10701;SDS011;5402;50.004;8.246;2022-09-09T06:33:51;1.73;;;1.23;;
10701;SDS011;5402;50.004;8.246;2022-09-09T06:36:20;3.43;;;1.43;;
10701;SDS011;5402;50.004;8.246;2022-09-09T06:38:49;5.13;;;1.73;;
10701;SDS011;5402;50.004;8.246;2022-09-09T06:41:16;4.07;;;1.70;;
10701;SDS011;5402;50.004;8.246;2022-09-09T06:43:46;1.67;;;1.30;;
10701;SDS011;5402;50.004;8.246;2022-09-09T06:46:13;3.37;;;1.27;;
10701;SDS011;5402;50.004;8.246;2022-09-09T06:48:42;5.40;;;1.43;;
10701;SDS011;5402;50.004;8.246;2022-09-09T06:51:11;4.07;;;1.63;;
10701;SDS011;5402;50.004;8.246;2022-09-09T06:53:39;2.53;;;1.70;;
10701;SDS011;5402;50.004;8.246;2022-09-09T06:56:17;3.10;;;1.70;;
10701;SDS011;5402;50.004;8.246;2022-09-09T06:58:47;3.43;;;1.43;;
10701;SDS011;5402;50.004;8.246;2022-09-09T07:01:15;3.80;;;1.60;;
10701;SDS011;5402;50.004;8.246;2022-09-09T07:03:44;3.60;;;1.50;;
10701;SDS011;5402;50.004;8.246;2022-09-09T07:06:13;3.43;;;1.50;;
10701;SDS011;5402;50.004;8.246;2022-09-09T07:08:42;3.20;;;1.63;;
10701;SDS011;5402;50.004;8.246;2022-09-09T07:11:09;5.17;;;1.53;;
10701;SDS011;5402;50.004;8.246;2022-09-09T07:13:37;2.57;;;1.57;;
10701;SDS011;5402;50.004;8.246;2022-09-09T07:16:05;3.43;;;1.73;;
10701;SDS011;5402;50.004;8.246;2022-09-09T07:18:33;2.83;;;1.70;;
10701;SDS011;5402;50.004;8.246;2022-09-09T07:21:01;3.50;;;1.80;;
10701;SDS011;5402;50.004;8.246;2022-09-09T07:23:29;3.03;;;2.03;;
10701;SDS011;5402;50.004;8.246;2022-09-09T07:25:56;2.60;;;1.90;;
10701;SDS011;5402;50.004;8.246;2022-09-09T07:28:24;4.63;;;2.33;;
10701;SDS011;5402;50.004;8.246;2022-09-09T07:30:54;3.23;;;2.20;;
10701;SDS011;5402;50.004;8.246;2022-09-09T07:33:23;4.50;;;2.23;;
10701;SDS011;5402;50.004;8.246;2022-09-09T07:35:50;3.63;;;2.10;;
10701;SDS011;5402;50.004;8.246;2022-09-09T07:38:16;4.00;;;2.30;;
10701;SDS011;5402;50.004;8.246;2022-09-09T07:40:43;4.10;;;2.37;;
10701;SDS011;5402;50.004;8.246;2022-09-09T07:43:11;3.90;;;2.70;;
10701;SDS011;5402;50.004;8.246;2022-09-09T07:45:37;4.37;;;2.67;;
10701;SDS011;5402;50.004;8.246;2022-09-09T07:48:05;4.33;;;2.57;;
10701;SDS011;5402;50.004;8.246;2022-09-09T07:50:33;7.37;;;2.70;;
10701;SDS011;5402;50.004;8.246;2022-09-09T07:53:00;3.17;;;2.67;;
10701;SDS011;5402;50.004;8.246;2022-09-09T07:55:27;5.33;;;2.87;;
10701;SDS011;5402;50.004;8.246;2022-09-09T07:57:55;5.57;;;2.60;;
10701;SDS011;5402;50.004;8.246;2022-09-09T08:00:22;2.67;;;2.20;;
10701;SDS011;5402;50.004;8.246;2022-09-09T08:02:48;3.93;;;2.43;;
10701;SDS011;5402;50.004;8.246;2022-09-09T08:05:15;2.93;;;2.50;;
10701;SDS011;5402;50.004;8.246;2022-09-09T08:07:44;5.83;;;2.57;;
10701;SDS011;5402;50.004;8.246;2022-09-09T08:10:11;4.43;;;2.50;;
10701;SDS011;5402;50.004;8.246;2022-09-09T08:12:39;3.77;;;2.40;;
10701;SDS011;5402;50.004;8.246;2022-09-09T08:15:06;4.00;;;2.77;;
10701;SDS011;5402;50.004;8.246;2022-09-09T08:17:33;5.77;;;3.07;;
10701;SDS011;5402;50.004;8.246;2022-09-09T08:20:02;5.27;;;3.10;;
10701;SDS011;5402;50.004;8.246;2022-09-09T08:22:31;6.67;;;3.30;;
10701;SDS011;5402;50.004;8.246;2022-09-09T08:25:00;5.90;;;2.60;;
10701;SDS011;5402;50.004;8.246;2022-09-09T08:27:27;5.13;;;2.50;;
10701;SDS011;5402;50.004;8.246;2022-09-09T08:29:54;7.23;;;2.40;;
10701;SDS011;5402;50.004;8.246;2022-09-09T08:32:21;5.47;;;2.40;;
10701;SDS011;5402;50.004;8.246;2022-09-09T08:34:48;4.97;;;2.40;;
10701;SDS011;5402;50.004;8.246;2022-09-09T08:37:16;6.37;;;2.70;;
10701;SDS011;5402;50.004;8.246;2022-09-09T08:39:44;3.57;;;2.10;;
10701;SDS011;5402;50.004;8.246;2022-09-09T08:42:23;3.57;;;1.90;;
10701;SDS011;5402;50.004;8.246;2022-09-09T08:48:07;9.27;;;2.80;;
10701;SDS011;5402;50.004;8.246;2022-09-09T08:50:42;6.10;;;2.30;;
10701;SDS011;5402;50.004;8.246;2022-09-09T08:53:14;5.83;;;2.47;;
10701;SDS011;5402;50.004;8.246;2022-09-09T08:55:45;4.37;;;2.30;;
10701;SDS011;5402;50.004;8.246;2022-09-09T08:58:15;3.13;;;2.00;;
10701;SDS011;5402;50.004;8.246;2022-09-09T09:00:57;7.60;;;2.27;;
10701;SDS011;5402;50.004;8.246;2022-09-09T09:03:35;3.53;;;2.07;;
10701;SDS011;5402;50.004;8.246;2022-09-09T09:06:14;3.00;;;1.70;;
10701;SDS011;5402;50.004;8.246;2022-09-09T09:08:50;3.73;;;1.63;;
10701;SDS011;5402;50.004;8.246;2022-09-09T09:11:22;3.83;;;1.60;;
10701;SDS011;5402;50.004;8.246;2022-09-09T09:13:52;2.80;;;1.77;;
10701;SDS011;5402;50.004;8.246;2022-09-09T09:16:26;3.07;;;1.70;;
10701;SDS011;5402;50.004;8.246;2022-09-09T09:18:57;3.67;;;1.90;;
10701;SDS011;5402;50.004;8.246;2022-09-09T09:21:27;2.33;;;1.50;;
10701;SDS011;5402;50.004;8.246;2022-09-09T09:24:00;3.43;;;1.80;;
10701;SDS011;5402;50.004;8.246;2022-09-09T09:26:30;4.77;;;1.97;;
10701;SDS011;5402;50.004;8.246;2022-09-09T09:29:01;4.30;;;1.87;;
10701;SDS011;5402;50.004;8.246;2022-09-09T09:31:38;6.47;;;1.83;;
10701;SDS011;5402;50.004;8.246;2022-09-09T09:34:05;3.47;;;1.50;;
10701;SDS011;5402;50.004;8.246;2022-09-09T09:36:38;4.43;;;1.83;;
10701;SDS011;5402;50.004;8.246;2022-09-09T09:39:07;2.70;;;1.40;;
10701;SDS011;5402;50.004;8.246;2022-09-09T09:41:34;3.60;;;1.40;;
10701;SDS011;5402;50.004;8.246;2022-09-09T09:44:18;6.20;;;1.70;;
10701;SDS011;5402;50.004;8.246;2022-09-09T09:46:49;4.50;;;1.70;;
10701;SDS011;5402;50.004;8.246;2022-09-09T09:49:16;5.33;;;1.90;;
10701;SDS011;5402;50.004;8.246;2022-09-09T09:51:43;4.90;;;1.73;;
10701;SDS011;5402;50.004;8.246;2022-09-09T09:54:15;3.50;;;1.60;;
10701;SDS011;5402;50.004;8.246;2022-09-09T09:56:50;4.17;;;1.53;;
10701;SDS011;5402;50.004;8.246;2022-09-09T09:59:22;2.77;;;1.70;;
10701;SDS011;5402;50.004;8.246;2022-09-09T10:01:50;2.70;;;1.70;;
10701;SDS011;5402;50.004;8.246;2022-09-09T10:04:17;3.13;;;1.70;;
10701;SDS011;5402;50.004;8.246;2022-09-09T10:06:48;4.03;;;1.70;;
10701;SDS011;5402;50.004;8.246;2022-09-09T10:09:20;3.73;;;1.50;;
10701;SDS011;5402;50.004;8.246;2022-09-09T10:11:51;3.23;;;1.80;;
10701;SDS011;5402;50.004;8.246;2022-09-09T10:14:28;4.90;;;1.90;;
10701;SDS011;5402;50.004;8.246;2022-09-09T10:17:03;10.60;;;2.07;;
10701;SDS011;5402;50.004;8.246;2022-09-09T10:19:38;6.07;;;1.90;;
10701;SDS011;5402;50.004;8.246;2022-09-09T10:22:14;3.00;;;1.77;;
10701;SDS011;5402;50.004;8.246;2022-09-09T10:24:56;4.73;;;1.77;;
10701;SDS011;5402;50.004;8.246;2022-09-09T10:27:44;6.10;;;1.50;;
10701;SDS011;5402;50.004;8.246;2022-09-09T10:30:21;1.37;;;1.20;;
10701;SDS011;5402;50.004;8.246;2022-09-09T10:32:52;2.33;;;1.10;;
10701;SDS011;5402;50.004;8.246;2022-09-09T10:35:27;2.87;;;1.00;;
10701;SDS011;5402;50.004;8.246;2022-09-09T10:38:09;2.05;;;1.10;;
10701;SDS011;5402;50.004;8.246;2022-09-09T10:40:44;1.60;;;0.97;;
10701;SDS011;5402;50.004;8.246;2022-09-09T10:43:35;1.30;;;0.90;;
10701;SDS011;5402;50.004;8.246;2022-09-09T10:46:18;2.00;;;1.10;;
10701;SDS011;5402;50.004;8.246;2022-09-09T10:48:57;1.67;;;1.00;;
10701;SDS011;5402;50.004;8.246;2022-09-09T10:51:36;1.88;;;1.10;;
10701;SDS011;5402;50.004;8.246;2022-09-09T10:54:17;3.35;;;1.27;;
10701;SDS011;5402;50.004;8.246;2022-09-09T10:56:54;2.40;;;1.15;;
10701;SDS011;5402;50.004;8.246;2022-09-09T10:59:24;2.45;;;1.10;;
10701;SDS011;5402;50.004;8.246;2022-09-09T11:01:57;2.97;;;1.20;;
10701;SDS011;5402;50.004;8.246;2022-09-09T11:04:31;2.90;;;1.58;;
10701;SDS011;5402;50.004;8.246;2022-09-09T11:07:05;2.72;;;1.30;;
10701;SDS011;5402;50.004;8.246;2022-09-09T11:09:35;1.10;;;1.00;;
10701;SDS011;5402;50.004;8.246;2022-09-09T11:12:09;2.22;;;1.20;;
10701;SDS011;5402;50.004;8.246;2022-09-09T11:14:41;1.40;;;1.05;;
10701;SDS011;5402;50.004;8.246;2022-09-09T11:17:14;3.67;;;1.17;;
10701;SDS011;5402;50.004;8.246;2022-09-09T11:19:44;1.75;;;1.10;;
10701;SDS011;5402;50.004;8.246;2022-09-09T11:22:15;1.52;;;1.10;;
10701;SDS011;5402;50.004;8.246;2022-09-09T11:24:49;2.42;;;1.20;;
10701;SDS011;5402;50.004;8.246;2022-09-09T11:27:20;2.83;;;1.20;;
10701;SDS011;5402;50.004;8.246;2022-09-09T11:32:57;2.33;;;1.42;;
10701;SDS011;5402;50.004;8.246;2022-09-09T11:35:38;3.95;;;1.20;;
10701;SDS011;5402;50.004;8.246;2022-09-09T11:38:15;2.55;;;1.10;;
10701;SDS011;5402;50.004;8.246;2022-09-09T11:40:45;2.63;;;1.10;;
10701;SDS011;5402;50.004;8.246;2022-09-09T11:43:13;1.63;;;1.10;;
10701;SDS011;5402;50.004;8.246;2022-09-09T11:45:43;2.42;;;1.20;;
10701;SDS011;5402;50.004;8.246;2022-09-09T11:48:28;2.65;;;1.38;;
10701;SDS011;5402;50.004;8.246;2022-09-09T11:50:59;1.77;;;1.20;;
10701;SDS011;5402;50.004;8.246;2022-09-09T11:53:27;3.35;;;1.05;;
10701;SDS011;5402;50.004;8.246;2022-09-09T11:58:53;1.80;;;1.25;;
10701;SDS011;5402;50.004;8.246;2022-09-09T12:04:21;2.00;;;1.35;;
10701;SDS011;5402;50.004;8.246;2022-09-09T12:06:56;1.70;;;1.10;;
10701;SDS011;5402;50.004;8.246;2022-09-09T12:09:28;2.65;;;1.27;;
10701;SDS011;5402;50.004;8.246;2022-09-09T12:12:07;2.90;;;1.20;;
10701;SDS011;5402;50.004;8.246;2022-09-09T12:14:57;3.55;;;1.25;;
10701;SDS011;5402;50.004;8.246;2022-09-09T12:17:27;3.70;;;1.10;;
10701;SDS011;5402;50.004;8.246;2022-09-09T12:20:11;4.75;;;1.23;;
10701;SDS011;5402;50.004;8.246;2022-09-09T12:22:43;4.18;;;1.10;;
10701;SDS011;5402;50.004;8.246;2022-09-09T12:25:32;2.38;;;1.15;;
10701;SDS011;5402;50.004;8.246;2022-09-09T12:28:05;2.43;;;1.00;;
10701;SDS011;5402;50.004;8.246;2022-09-09T12:30:42;2.97;;;1.20;;
10701;SDS011;5402;50.004;8.246;2022-09-09T12:33:19;1.83;;;1.10;;
10701;SDS011;5402;50.004;8.246;2022-09-09T12:35:49;2.73;;;1.00;;
10701;SDS011;5402;50.004;8.246;2022-09-09T12:38:22;3.73;;;1.10;;
10701;SDS011;5402;50.004;8.246;2022-09-09T12:40:54;1.77;;;1.00;;
10701;SDS011;5402;50.004;8.246;2022-09-09T12:43:22;3.37;;;0.90;;
10701;SDS011;5402;50.004;8.246;2022-09-09T12:45:51;2.30;;;1.10;;
10701;SDS011;5402;50.004;8.246;2022-09-09T12:48:24;1.20;;;0.80;;
10701;SDS011;5402;50.004;8.246;2022-09-09T12:50:57;2.23;;;1.07;;
10701;SDS011;5402;50.004;8.246;2022-09-09T12:53:26;3.30;;;1.00;;
10701;SDS011;5402;50.004;8.246;2022-09-09T12:55:57;2.93;;;1.00;;
10701;SDS011;5402;50.004;8.246;2022-09-09T12:58:27;1.23;;;0.80;;
10701;SDS011;5402;50.004;8.246;2022-09-09T13:00:57;1.67;;;0.93;;
10701;SDS011;5402;50.004;8.246;2022-09-09T13:03:25;1.00;;;0.93;;
10701;SDS011;5402;50.004;8.246;2022-09-09T13:05:54;1.37;;;1.00;;
10701;SDS011;5402;50.004;8.246;2022-09-09T13:08:36;3.90;;;1.00;;
10701;SDS011;5402;50.004;8.246;2022-09-09T13:11:03;2.07;;;1.00;;
10701;SDS011;5402;50.004;8.246;2022-09-09T13:13:34;1.10;;;1.00;;
10701;SDS011;5402;50.004;8.246;2022-09-09T13:16:06;2.03;;;0.80;;
10701;SDS011;5402;50.004;8.246;2022-09-09T13:18:44;1.13;;;0.67;;
10701;SDS011;5402;50.004;8.246;2022-09-09T13:21:12;1.53;;;0.80;;
10701;SDS011;5402;50.004;8.246;2022-09-09T13:23:40;1.50;;;0.63;;
10701;SDS011;5402;50.004;8.246;2022-09-09T13:26:19;1.63;;;0.80;;
10701;SDS011;5402;50.004;8.246;2022-09-09T13:28:48;1.53;;;0.80;;
10701;SDS011;5402;50.004;8.246;2022-09-09T13:31:19;0.83;;;0.73;;
10701;SDS011;5402;50.004;8.246;2022-09-09T13:33:47;1.33;;;0.83;;
10701;SDS011;5402;50.004;8.246;2022-09-09T13:36:16;0.80;;;0.80;;
10701;SDS011;5402;50.004;8.246;2022-09-09T13:38:53;1.52;;;0.80;;
10701;SDS011;5402;50.004;8.246;2022-09-09T13:41:22;1.30;;;0.80;;
10701;SDS011;5402;50.004;8.246;2022-09-09T13:43:50;1.40;;;0.70;;
10701;SDS011;5402;50.004;8.246;2022-09-09T13:46:28;1.40;;;0.70;;
10701;SDS011;5402;50.004;8.246;2022-09-09T13:49:00;2.03;;;0.80;;
10701;SDS011;5402;50.004;8.246;2022-09-09T13:51:32;2.33;;;0.70;;
10701;SDS011;5402;50.004;8.246;2022-09-09T13:54:02;4.60;;;1.10;;
10701;SDS011;5402;50.004;8.246;2022-09-09T13:56:31;2.10;;;0.83;;
10701;SDS011;5402;50.004;8.246;2022-09-09T13:58:58;1.60;;;0.60;;
10701;SDS011;5402;50.004;8.246;2022-09-09T14:01:24;2.90;;;0.90;;
10701;SDS011;5402;50.004;8.246;2022-09-09T14:03:54;0.70;;;0.70;;
10701;SDS011;5402;50.004;8.246;2022-09-09T14:06:22;2.07;;;1.00;;
10701;SDS011;5402;50.004;8.246;2022-09-09T14:08:50;1.57;;;0.80;;
10701;SDS011;5402;50.004;8.246;2022-09-09T14:11:19;1.83;;;0.97;;
10701;SDS011;5402;50.004;8.246;2022-09-09T14:13:47;2.23;;;1.00;;
10701;SDS011;5402;50.004;8.246;2022-09-09T14:16:14;2.93;;;1.07;;
10701;SDS011;5402;50.004;8.246;2022-09-09T14:18:42;3.80;;;1.27;;
10701;SDS011;5402;50.004;8.246;2022-09-09T14:21:09;2.10;;;1.10;;
10701;SDS011;5402;50.004;8.246;2022-09-09T14:23:36;4.00;;;1.13;;
10701;SDS011;5402;50.004;8.246;2022-09-09T14:26:05;4.80;;;1.40;;
10701;SDS011;5402;50.004;8.246;2022-09-09T14:28:32;3.30;;;1.10;;
10701;SDS011;5402;50.004;8.246;2022-09-09T14:30:59;1.47;;;0.90;;
10701;SDS011;5402;50.004;8.246;2022-09-09T14:33:27;3.63;;;1.07;;
10701;SDS011;5402;50.004;8.246;2022-09-09T14:35:55;1.90;;;1.00;;
10701;SDS011;5402;50.004;8.246;2022-09-09T14:38:22;1.63;;;0.90;;
10701;SDS011;5402;50.004;8.246;2022-09-09T14:40:50;1.97;;;1.30;;
10701;SDS011;5402;50.004;8.246;2022-09-09T14:43:18;2.30;;;1.10;;
10701;SDS011;5402;50.004;8.246;2022-09-09T14:45:45;3.27;;;1.17;;
10701;SDS011;5402;50.004;8.246;2022-09-09T14:48:14;2.13;;;1.17;;
10701;SDS011;5402;50.004;8.246;2022-09-09T14:50:41;2.27;;;1.00;;
10701;SDS011;5402;50.004;8.246;2022-09-09T14:53:08;4.67;;;1.30;;
10701;SDS011;5402;50.004;8.246;2022-09-09T14:55:35;5.40;;;1.33;;
10701;SDS011;5402;50.004;8.246;2022-09-09T14:58:04;2.07;;;1.30;;
10701;SDS011;5402;50.004;8.246;2022-09-09T15:00:32;1.80;;;1.13;;
10701;SDS011;5402;50.004;8.246;2022-09-09T15:03:01;1.57;;;1.10;;
10701;SDS011;5402;50.004;8.246;2022-09-09T15:05:27;4.13;;;1.40;;
10701;SDS011;5402;50.004;8.246;2022-09-09T15:07:56;2.33;;;1.07;;
10701;SDS011;5402;50.004;8.246;2022-09-09T15:10:23;1.50;;;1.00;;
10701;SDS011;5402;50.004;8.246;2022-09-09T15:12:51;2.70;;;1.50;;
10701;SDS011;5402;50.004;8.246;2022-09-09T15:15:18;2.37;;;1.07;;
10701;SDS011;5402;50.004;8.246;2022-09-09T15:17:47;3.53;;;1.10;;
10701;SDS011;5402;50.004;8.246;2022-09-09T15:20:14;1.67;;;1.00;;
10701;SDS011;5402;50.004;8.246;2022-09-09T15:22:41;3.70;;;1.20;;
10701;SDS011;5402;50.004;8.246;2022-09-09T15:25:08;2.33;;;1.10;;
10701;SDS011;5402;50.004;8.246;2022-09-09T15:27:37;1.77;;;1.00;;
10701;SDS011;5402;50.004;8.246;2022-09-09T15:30:04;4.07;;;0.93;;
10701;SDS011;5402;50.004;8.246;2022-09-09T15:32:32;4.40;;;1.13;;